Terminal Aerodrome Forecast
Issued by NWS Wilmington, NC

Home | Current Version | Previous Version | Text Only | Print | Product List | Glossary On
Versions: 1 2 3 4 5 6 7 8 9 10 11 12 13
000
FTUS42 KILM 201120
TAFFLO
TAF
KFLO 201120Z 2012/2112 00000KT 5SM BR SKC
      TEMPO 2012/2013 2SM BR SCT004
     FM201300 08005KT P6SM SCT045
     FM201900 12006KT P6SM BKN050
     FM210200 08003KT P6SM SCT250
      TEMPO 2109/2112 1SM BR SCT003=

USA.gov is the U.S. government's official web portal to all federal, state and local government web resources and services.